createdAt,value
2024-04-24T00:00:59.565Z,84
2024-04-24T00:01:59.617Z,84.3
2024-04-24T00:02:59.573Z,84.6
2024-04-24T00:03:59.617Z,84.9
2024-04-24T00:05:01.134Z,84.9
2024-04-24T00:05:59.568Z,84.6
2024-04-24T00:06:59.587Z,84.6
2024-04-24T00:07:59.572Z,84.3
2024-04-24T00:08:59.561Z,83.9
2024-04-24T00:09:59.565Z,83.9
2024-04-24T00:10:59.675Z,84.6
2024-04-24T00:11:59.671Z,84.9
2024-04-24T00:12:59.564Z,84.9
2024-04-24T00:13:59.577Z,84.8
2024-04-24T00:14:59.570Z,84.9
2024-04-24T00:15:59.560Z,84.8
2024-04-24T00:16:59.617Z,84.5
2024-04-24T00:17:59.655Z,84.5
2024-04-24T00:18:59.563Z,84.2
2024-04-24T00:19:59.587Z,83.9
2024-04-24T00:20:59.913Z,83.9
2024-04-24T00:21:59.570Z,83.9
2024-04-24T00:22:59.604Z,83.6
2024-04-24T00:23:59.570Z,83.6
2024-04-24T00:24:59.587Z,83.9
2024-04-24T00:25:59.601Z,84.2
2024-04-24T00:26:59.564Z,84.2
2024-04-24T00:27:59.589Z,83.8
2024-04-24T00:28:59.630Z,83.8
2024-04-24T00:29:59.574Z,83.8
2024-04-24T00:30:59.572Z,84.1
2024-04-24T00:31:59.590Z,84.4
2024-04-24T00:32:59.678Z,85
2024-04-24T00:33:59.647Z,84.7
2024-04-24T00:34:59.608Z,85
2024-04-24T00:35:59.575Z,85
2024-04-24T00:36:59.566Z,85.3
2024-04-24T00:37:59.620Z,85.6
2024-04-24T00:38:59.670Z,85.6
2024-04-24T00:39:59.574Z,86.2
2024-04-24T00:40:59.579Z,86.2
2024-04-24T00:41:59.616Z,86.2
2024-04-24T00:42:59.564Z,86.8
2024-04-24T00:43:59.581Z,86.8
2024-04-24T00:44:59.568Z,86.8
2024-04-24T00:45:59.564Z,86.5
2024-04-24T00:46:59.597Z,86.8
2024-04-24T00:47:59.627Z,86.7
2024-04-24T00:48:59.570Z,86.7
2024-04-24T00:49:59.591Z,87
2024-04-24T00:50:59.570Z,87.3
2024-04-24T00:51:59.576Z,87.4
2024-04-24T00:52:59.657Z,87.3
2024-04-24T00:53:59.586Z,87.3
2024-04-24T00:54:59.557Z,87.3
2024-04-24T00:55:59.592Z,87.3
2024-04-24T00:56:59.579Z,87.6
2024-04-24T00:57:59.561Z,87.3
2024-04-24T00:58:59.555Z,87.3
2024-04-24T00:59:59.592Z,87.3
2024-04-24T01:00:59.599Z,87.6
2024-04-24T01:01:59.602Z,87.9
2024-04-24T01:02:59.608Z,87.9
2024-04-24T01:03:59.599Z,87.9
2024-04-24T01:04:59.616Z,87.9
2024-04-24T01:05:59.554Z,87.9
2024-04-24T01:06:59.569Z,88.2
2024-04-24T01:07:59.580Z,88.2
2024-04-24T01:08:59.564Z,87.9
2024-04-24T01:09:59.566Z,87.9
2024-04-24T01:10:59.735Z,88.2
2024-04-24T01:11:59.665Z,87.9
2024-04-24T01:12:59.570Z,87.9
2024-04-24T01:13:59.603Z,87.9
2024-04-24T01:14:59.581Z,88.2
2024-04-24T01:15:59.559Z,88.5
2024-04-24T01:16:59.636Z,88.5
2024-04-24T01:17:59.654Z,88.5
2024-04-24T01:18:59.556Z,88.5
2024-04-24T01:19:59.590Z,88.5
2024-04-24T01:20:59.560Z,88.5
2024-04-24T01:21:59.561Z,88.5
2024-04-24T01:22:59.585Z,88.5
2024-04-24T01:23:59.566Z,88.4
2024-04-24T01:24:59.553Z,89.1
2024-04-24T01:25:59.579Z,89.1
2024-04-24T01:26:59.555Z,89
2024-04-24T01:27:59.585Z,89
2024-04-24T01:28:59.602Z,89
2024-04-24T01:29:59.569Z,89
2024-04-24T01:30:59.563Z,89.3
2024-04-24T01:31:59.646Z,89
2024-04-24T01:32:59.742Z,88.7
2024-04-24T01:33:59.582Z,88.7
2024-04-24T01:34:59.733Z,89
2024-04-24T01:35:59.560Z,89.3
2024-04-24T01:36:59.572Z,89
2024-04-24T01:37:59.610Z,89.3
2024-04-24T01:38:59.563Z,89.3
2024-04-24T01:39:59.563Z,89.6
2024-04-24T01:40:59.598Z,89.6
2024-04-24T01:41:59.594Z,89.6
2024-04-24T01:42:59.561Z,89.6
2024-04-24T01:43:59.699Z,89.6
2024-04-24T01:44:59.580Z,89.6
2024-04-24T01:45:59.573Z,89.6
2024-04-24T01:46:59.617Z,89.6
2024-04-24T01:47:59.660Z,89.6
2024-04-24T01:48:59.623Z,89.6
2024-04-24T01:49:59.613Z,89.6
2024-04-24T01:50:59.566Z,89.3
2024-04-24T01:51:59.564Z,89
2024-04-24T01:52:59.713Z,89.6
2024-04-24T01:53:59.563Z,89.6
2024-04-24T01:54:59.572Z,89.6
2024-04-24T01:55:59.584Z,89.6
2024-04-24T01:56:59.580Z,89.6
2024-04-24T01:57:59.561Z,89.3
2024-04-24T01:58:59.597Z,89.6
2024-04-24T01:59:59.585Z,89.6
2024-04-24T02:00:59.479Z,89.6
2024-04-24T02:01:59.611Z,89.9
2024-04-24T02:02:59.599Z,89.9
2024-04-24T02:03:59.583Z,89.9
2024-04-24T02:04:59.597Z,90.2
2024-04-24T02:05:59.573Z,90.2
2024-04-24T02:06:59.587Z,90.2
2024-04-24T02:07:59.675Z,90.2
2024-04-24T02:08:59.568Z,90.2
2024-04-24T02:09:59.619Z,90.2
2024-04-24T02:10:59.573Z,90.2
2024-04-24T02:12:06.928Z,90.2
2024-04-24T02:12:59.694Z,90.2
2024-04-24T02:13:59.606Z,90.2
2024-04-24T02:14:59.575Z,90.2
2024-04-24T02:15:59.569Z,90.2
2024-04-24T02:16:59.588Z,90.2
2024-04-24T02:17:59.661Z,90
2024-04-24T02:18:59.645Z,90.2
2024-04-24T02:19:59.622Z,90.2
2024-04-24T02:20:59.568Z,90.2
2024-04-24T02:21:59.791Z,89.9
2024-04-24T02:22:59.604Z,90.2
2024-04-24T02:23:59.574Z,89.9
2024-04-24T02:24:59.570Z,89.9
2024-04-24T02:25:59.594Z,89.6
2024-04-24T02:26:59.566Z,89.6
2024-04-24T02:27:59.561Z,89.3
2024-04-24T02:28:59.592Z,89
2024-04-24T02:29:59.614Z,89
2024-04-24T02:30:59.588Z,88.4
2024-04-24T02:31:59.642Z,88.4
2024-04-24T02:32:59.752Z,88.1
2024-04-24T02:33:59.562Z,88.1
2024-04-24T02:34:59.640Z,88
2024-04-24T02:35:59.565Z,87.8
2024-04-24T02:36:59.558Z,87.8
2024-04-24T02:37:59.565Z,88.1
2024-04-24T02:38:59.588Z,88.4
2024-04-24T02:39:59.572Z,88.4
2024-04-24T02:40:59.598Z,88.4
2024-04-24T02:41:59.574Z,88.4
2024-04-24T02:42:59.561Z,88.4
2024-04-24T02:43:59.584Z,88.4
2024-04-24T02:44:59.602Z,88.4
2024-04-24T02:45:59.560Z,87.8
2024-04-24T02:46:59.600Z,88.1
2024-04-24T02:47:59.656Z,88.4
2024-04-24T02:48:59.560Z,88.4
2024-04-24T02:49:59.583Z,88.4
2024-04-24T02:50:59.563Z,88.4
2024-04-24T02:51:59.564Z,88.7
2024-04-24T02:52:59.579Z,89
2024-04-24T02:53:59.568Z,89
2024-04-24T02:54:59.564Z,89
2024-04-24T02:55:59.612Z,88.7
2024-04-24T02:56:59.603Z,89
2024-04-24T02:57:59.567Z,89
2024-04-24T02:58:59.617Z,89
2024-04-24T02:59:59.638Z,89
2024-04-24T03:00:59.618Z,89
2024-04-24T03:01:59.590Z,89
2024-04-24T03:02:59.742Z,89
2024-04-24T03:03:59.581Z,89.1
2024-04-24T03:04:59.580Z,89.1
2024-04-24T03:05:59.560Z,89.1
2024-04-24T03:06:59.564Z,89.3
2024-04-24T03:07:59.581Z,89.3
2024-04-24T03:08:59.579Z,89.3
2024-04-24T03:09:59.578Z,89.4
2024-04-24T03:10:59.653Z,89.4
2024-04-24T03:11:59.625Z,89.7
2024-04-24T03:12:59.563Z,89.4
2024-04-24T03:13:59.585Z,89.4
2024-04-24T03:14:59.566Z,89.1
2024-04-24T03:15:59.565Z,89.1
2024-04-24T03:16:59.637Z,88.8
2024-04-24T03:17:59.635Z,89.1
2024-04-24T03:18:59.562Z,88.8
2024-04-24T03:19:59.615Z,88.5
2024-04-24T03:20:59.566Z,88.5
2024-04-24T03:21:59.580Z,88.5
2024-04-24T03:22:59.594Z,88.5
2024-04-24T03:23:59.573Z,88.5
2024-04-24T03:24:59.565Z,88.5
2024-04-24T03:25:59.580Z,88.2
2024-04-24T03:26:59.566Z,88.5
2024-04-24T03:27:59.568Z,88.5
2024-04-24T03:28:59.619Z,88.5
2024-04-24T03:29:59.611Z,88.5
2024-04-24T03:30:59.563Z,88.5
2024-04-24T03:31:59.649Z,87.9
2024-04-24T03:32:59.804Z,87.9
2024-04-24T03:33:59.567Z,87.7
2024-04-24T03:34:59.625Z,88.2
2024-04-24T03:35:59.558Z,88.2
2024-04-24T03:36:59.570Z,88.2
2024-04-24T03:37:59.587Z,88.5
2024-04-24T03:38:59.562Z,88.2
2024-04-24T03:39:59.588Z,88.2
2024-04-24T03:40:59.575Z,88.5
2024-04-24T03:41:59.600Z,88.5
2024-04-24T03:42:59.612Z,88.5
2024-04-24T03:43:59.615Z,88.5
2024-04-24T03:44:59.564Z,88.2
2024-04-24T03:45:59.573Z,88.2
2024-04-24T03:46:59.636Z,88.2
2024-04-24T03:47:59.755Z,88.2
2024-04-24T03:48:59.561Z,87.9
2024-04-24T03:49:59.623Z,87.9
2024-04-24T03:50:59.563Z,88.2
2024-04-24T03:51:59.572Z,88.1
2024-04-24T03:52:59.591Z,88.2
2024-04-24T03:53:59.569Z,88.2
2024-04-24T03:54:59.598Z,88.2
2024-04-24T03:55:59.590Z,88.3
2024-04-24T03:56:59.564Z,87.9
2024-04-24T03:57:59.562Z,87.9
2024-04-24T03:58:59.592Z,87.9
2024-04-24T03:59:59.596Z,88
2024-04-24T04:00:59.604Z,88
2024-04-24T04:01:59.728Z,88.3
2024-04-24T04:02:59.658Z,88
2024-04-24T04:04:02.554Z,87.9
2024-04-24T04:04:59.615Z,88
2024-04-24T04:05:59.567Z,87.9
2024-04-24T04:06:59.570Z,88.3
2024-04-24T04:07:59.693Z,88.3
2024-04-24T04:08:59.581Z,87.9
2024-04-24T04:09:59.584Z,88
2024-04-24T04:10:59.624Z,88
2024-04-24T04:11:59.643Z,88
2024-04-24T04:12:59.571Z,87.9
2024-04-24T04:13:59.605Z,88
2024-04-24T04:14:59.584Z,88
2024-04-24T04:15:59.571Z,88
2024-04-24T04:16:59.643Z,88
2024-04-24T04:17:59.669Z,87.3
2024-04-24T04:18:59.576Z,87.4
2024-04-24T04:19:59.604Z,88
2024-04-24T04:20:59.585Z,88
2024-04-24T04:21:59.572Z,88
2024-04-24T04:22:59.617Z,87.7
2024-04-24T04:23:59.583Z,87.7
2024-04-24T04:24:59.566Z,87.4
2024-04-24T04:25:59.589Z,88
2024-04-24T04:26:59.571Z,87.7
2024-04-24T04:27:59.570Z,88
2024-04-24T04:28:59.586Z,88
2024-04-24T04:29:59.573Z,88
2024-04-24T04:30:59.570Z,87.7
2024-04-24T04:31:59.629Z,87.4
2024-04-24T04:32:59.706Z,87.4
2024-04-24T04:33:59.575Z,87.4
2024-04-24T04:34:59.650Z,87.4
2024-04-24T04:39:59.264Z,87.7
2024-04-24T04:40:59.351Z,87.7
2024-04-24T04:41:59.298Z,87.5
2024-04-24T04:42:59.265Z,88
2024-04-24T04:43:59.330Z,88
2024-04-24T04:44:59.320Z,87.7
2024-04-24T04:45:59.273Z,87.4
2024-04-24T04:46:59.319Z,87.4
2024-04-24T04:47:59.470Z,87.4
2024-04-24T04:48:59.273Z,87.4
2024-04-24T04:49:59.302Z,87.4
2024-04-24T04:50:59.290Z,87.4
2024-04-24T04:51:59.273Z,87.4
2024-04-24T04:52:59.285Z,87.4
2024-04-24T04:53:59.301Z,87.4
2024-04-24T04:54:59.280Z,87.1
2024-04-24T04:55:59.337Z,86.8
2024-04-24T04:56:59.265Z,87.1
2024-04-24T04:57:59.274Z,87.1
2024-04-24T04:58:59.305Z,87.4
2024-04-24T04:59:59.275Z,87.4
2024-04-24T05:00:59.301Z,87.4
2024-04-24T05:02:00.011Z,87.7
2024-04-24T05:02:59.307Z,87.4
2024-04-24T05:03:59.298Z,87.4
2024-04-24T05:04:59.299Z,87.4
2024-04-24T05:05:59.290Z,87.4
2024-04-24T05:06:59.317Z,87.4
2024-04-24T05:07:59.325Z,87.1
2024-04-24T05:08:59.273Z,87.5
2024-04-24T05:09:59.274Z,87.4
2024-04-24T05:10:59.350Z,87.4
2024-04-24T05:11:59.391Z,87.5
2024-04-24T05:12:59.275Z,87.5
2024-04-24T05:13:59.330Z,87.5
2024-04-24T05:14:59.285Z,86.8
2024-04-24T05:15:59.293Z,86.9
2024-04-24T05:16:59.330Z,86.9
2024-04-24T05:17:59.368Z,86.9
2024-04-24T05:18:59.341Z,86.9
2024-04-24T05:19:59.275Z,86.9
2024-04-24T05:20:59.275Z,86.9
2024-04-24T05:21:59.277Z,86.9
2024-04-24T05:22:59.336Z,86.9
2024-04-24T05:23:59.265Z,86.9
2024-04-24T05:24:59.301Z,86.9
2024-04-24T05:25:59.294Z,86.6
2024-04-24T05:26:59.263Z,86.3
2024-04-24T05:27:59.265Z,86.3
2024-04-24T05:28:59.298Z,86.3
2024-04-24T05:29:59.279Z,86
2024-04-24T05:30:59.262Z,86
2024-04-24T05:31:59.374Z,86.3
2024-04-24T05:32:59.362Z,86.3
2024-04-24T05:33:59.311Z,86.2
2024-04-24T05:34:59.385Z,86.3
2024-04-24T05:35:59.291Z,86.3
2024-04-24T05:36:59.271Z,86
2024-04-24T05:37:59.297Z,85.9
2024-04-24T05:38:59.264Z,86
2024-04-24T05:39:59.302Z,85.7
2024-04-24T05:40:59.297Z,85.7
2024-04-24T05:41:59.266Z,85.8
2024-04-24T05:42:59.266Z,85.7
2024-04-24T05:43:59.341Z,85.7
2024-04-24T05:44:59.261Z,85.4
2024-04-24T05:45:59.266Z,85.2
2024-04-24T05:46:59.316Z,85.1
2024-04-24T05:47:59.300Z,85.1
2024-04-24T05:48:59.299Z,85.2
2024-04-24T05:49:59.290Z,85.2
2024-04-24T05:50:59.267Z,85.2
2024-04-24T05:51:59.919Z,84.6
2024-04-24T05:52:59.283Z,84.6
2024-04-24T05:53:59.280Z,84.6
2024-04-24T05:54:59.277Z,84.6
2024-04-24T05:55:59.298Z,84.3
2024-04-24T05:56:59.271Z,84.4
2024-04-24T05:57:59.678Z,84
2024-04-24T05:58:59.307Z,84
2024-04-24T05:59:59.271Z,84
2024-04-24T06:00:59.297Z,84
2024-04-24T06:01:59.292Z,84
2024-04-24T06:02:59.715Z,84
2024-04-24T06:03:59.280Z,84
2024-04-24T06:04:59.403Z,83.7
2024-04-24T06:05:59.266Z,83.4
2024-04-24T06:06:59.270Z,82.8
2024-04-24T06:07:59.333Z,82.8
2024-04-24T06:08:59.294Z,83.1
2024-04-24T06:09:59.303Z,82.8
2024-04-24T06:10:59.341Z,82.2
2024-04-24T06:11:59.360Z,82.2
2024-04-24T06:12:59.265Z,81.6
2024-04-24T06:13:59.306Z,81.6
2024-04-24T06:14:59.263Z,81.6
2024-04-24T06:15:59.296Z,81.6
2024-04-24T06:16:59.290Z,81.3
2024-04-24T06:17:59.393Z,81
2024-04-24T06:18:59.349Z,80.7
2024-04-24T06:19:59.324Z,79.8
2024-04-24T06:20:59.291Z,80.4
2024-04-24T06:21:59.270Z,80.4
2024-04-24T06:22:59.322Z,80.4
2024-04-24T06:23:59.278Z,80.4
2024-04-24T06:24:59.260Z,79.5
2024-04-24T06:25:59.296Z,79.8
2024-04-24T06:26:59.262Z,79.8
2024-04-24T06:27:59.269Z,79.8
2024-04-24T06:28:59.284Z,79.2
2024-04-24T06:29:59.272Z,78.6
2024-04-24T06:30:59.272Z,78.9
2024-04-24T06:31:59.373Z,77.9
2024-04-24T06:32:59.399Z,78.6
2024-04-24T06:33:59.293Z,79.2
2024-04-24T06:34:59.288Z,79.5
2024-04-24T06:35:59.265Z,78.1
2024-04-24T06:36:59.263Z,78.9
2024-04-24T06:37:59.323Z,78.9
2024-04-24T06:38:59.296Z,78.9
2024-04-24T06:39:59.274Z,79.2
2024-04-24T06:40:59.295Z,79.2
2024-04-24T06:41:59.305Z,79.8
2024-04-24T06:42:59.264Z,80.4
2024-04-24T06:43:59.339Z,80.4
2024-04-24T06:44:59.295Z,80.7
2024-04-24T06:45:59.274Z,80.4
2024-04-24T06:46:59.305Z,80.7
2024-04-24T06:47:59.327Z,80.7
2024-04-24T06:48:59.342Z,80.7
2024-04-24T06:49:59.298Z,81
2024-04-24T06:50:59.268Z,81
2024-04-24T06:51:59.263Z,81
2024-04-24T06:52:59.366Z,81
2024-04-24T06:53:59.268Z,81
2024-04-24T06:54:59.281Z,81.3
2024-04-24T06:55:59.297Z,81.6
2024-04-24T06:56:59.270Z,81.6
2024-04-24T06:58:00.755Z,81.3
2024-04-24T06:58:59.329Z,81.3
2024-04-24T06:59:59.260Z,81
2024-04-24T07:00:59.335Z,81
2024-04-24T07:01:59.371Z,81.3
2024-04-24T07:02:59.267Z,81.3
2024-04-24T07:03:59.269Z,81.4
2024-04-24T07:04:59.291Z,81.7
2024-04-24T07:05:59.336Z,81.1
2024-04-24T07:06:59.275Z,80.1
2024-04-24T07:07:59.284Z,78.9
2024-04-24T07:08:59.261Z,79.2
2024-04-24T07:09:59.271Z,78
2024-04-24T07:10:59.373Z,78.9
2024-04-24T07:11:59.338Z,79.3
2024-04-24T07:12:59.261Z,78
2024-04-24T07:13:59.288Z,78
2024-04-24T07:14:59.260Z,78.7
2024-04-24T07:15:59.259Z,78.1
2024-04-24T07:16:59.280Z,77.5
2024-04-24T07:17:59.374Z,77.8
2024-04-24T07:18:59.321Z,78.1
2024-04-24T07:19:59.292Z,77.2
2024-04-24T07:20:59.271Z,75.6
2024-04-24T07:21:59.267Z,73.1
2024-04-24T07:22:59.277Z,74.4
2024-04-24T07:23:59.328Z,73.2
2024-04-24T07:24:59.261Z,74.8
2024-04-24T07:25:59.299Z,73.8
2024-04-24T07:26:59.263Z,72.6
2024-04-24T07:27:59.283Z,73.2
2024-04-24T07:28:59.279Z,73.5
2024-04-24T07:29:59.305Z,73.8
2024-04-24T07:30:59.263Z,73.9
2024-04-24T07:31:59.312Z,74.2
2024-04-24T07:32:59.296Z,72.9
2024-04-24T07:33:59.368Z,73.3
2024-04-24T07:34:59.314Z,71.7
2024-04-24T07:35:59.283Z,71.4
2024-04-24T07:36:59.272Z,72.1
2024-04-24T07:37:59.316Z,72.7
2024-04-24T07:38:59.270Z,72.1
2024-04-24T07:39:59.269Z,71.5
2024-04-24T07:40:59.405Z,71.2
2024-04-24T07:41:59.259Z,70
2024-04-24T07:42:59.288Z,70.6
2024-04-24T07:43:59.303Z,68.7
2024-04-24T07:44:59.281Z,70.9
2024-04-24T07:45:59.265Z,70.3
2024-04-24T07:47:02.394Z,70.3
2024-04-24T07:47:59.379Z,69.7
2024-04-24T07:48:59.295Z,67.2
2024-04-24T07:49:59.298Z,67.8
2024-04-24T07:50:59.269Z,67.8
2024-04-24T07:51:59.275Z,65.9
2024-04-24T07:52:59.310Z,65.3
2024-04-24T07:53:59.287Z,65.3
2024-04-24T07:54:59.288Z,63.7
2024-04-24T07:55:59.270Z,63.7
2024-04-24T07:56:59.278Z,64
2024-04-24T07:57:59.284Z,62.8
2024-04-24T07:58:59.332Z,63.1
2024-04-24T07:59:59.291Z,62.2
2024-04-24T08:00:59.328Z,62.8
2024-04-24T08:01:59.294Z,62.8
2024-04-24T08:02:59.297Z,62.2
2024-04-24T08:03:59.281Z,62.2
2024-04-24T08:04:59.294Z,61.5
2024-04-24T08:05:59.265Z,62.2
2024-04-24T08:06:59.289Z,62.8
2024-04-24T08:07:59.290Z,62.8
2024-04-24T08:08:59.281Z,63.4
2024-04-24T08:09:59.275Z,62.8
2024-04-24T08:10:59.375Z,64.7
2024-04-24T08:12:00.106Z,64.7
2024-04-24T08:12:59.267Z,66
2024-04-24T08:13:59.291Z,62.9
2024-04-24T08:14:59.274Z,64.8
2024-04-24T08:15:59.322Z,64.2
2024-04-24T08:16:59.305Z,63.6
2024-04-24T08:17:59.299Z,63
2024-04-24T08:18:59.290Z,61.8
2024-04-24T08:19:59.326Z,60.5
2024-04-24T08:20:59.275Z,62.4
2024-04-24T08:21:59.338Z,62.4
2024-04-24T08:22:59.270Z,60.2
2024-04-24T08:23:59.261Z,56.8
2024-04-24T08:24:59.275Z,57.4
2024-04-24T08:25:59.285Z,56.1
2024-04-24T08:26:59.266Z,58
2024-04-24T08:27:59.269Z,58
2024-04-24T08:28:59.332Z,57.7
2024-04-24T08:29:59.274Z,54.3
2024-04-24T08:30:59.271Z,55.2
2024-04-24T08:31:59.319Z,54.2
2024-04-24T08:32:59.438Z,54.8
2024-04-24T08:33:59.384Z,53.6
2024-04-24T08:34:59.300Z,53.6
2024-04-24T08:35:59.260Z,53.6
2024-04-24T08:36:59.275Z,54.8
2024-04-24T08:37:59.288Z,54.8
2024-04-24T08:38:59.267Z,54.2
2024-04-24T08:39:59.269Z,54.2
2024-04-24T08:40:59.283Z,52.6
2024-04-24T08:42:00.372Z,52.3
2024-04-24T08:42:59.272Z,52.3
2024-04-24T08:43:59.311Z,53.5
2024-04-24T08:44:59.266Z,52.9
2024-04-24T08:45:59.262Z,52
2024-04-24T08:46:59.281Z,53.5
2024-04-24T08:47:59.339Z,53.5
2024-04-24T08:48:59.433Z,53.5
2024-04-24T08:49:59.281Z,54.2
2024-04-24T08:50:59.267Z,53.5
2024-04-24T08:51:59.272Z,53.5
2024-04-24T08:52:59.311Z,52.3
2024-04-24T08:53:59.294Z,52.3
2024-04-24T08:54:59.317Z,52
2024-04-24T08:55:59.292Z,49.8
2024-04-24T08:56:59.277Z,51
2024-04-24T08:57:59.258Z,49.8
2024-04-24T08:58:59.273Z,49.5
2024-04-24T08:59:59.289Z,50.7
2024-04-24T09:00:59.345Z,52.6
2024-04-24T09:01:59.302Z,53.3
2024-04-24T09:02:59.379Z,49.5
2024-04-24T09:03:59.373Z,50.4
2024-04-24T09:04:59.359Z,49.8
2024-04-24T09:05:59.273Z,51.7
2024-04-24T09:07:01.277Z,51.1
2024-04-24T09:07:59.286Z,50.1
2024-04-24T09:08:59.277Z,51.1
2024-04-24T09:09:59.283Z,49.2
2024-04-24T09:10:59.308Z,48.6
2024-04-24T09:11:59.300Z,49.2
2024-04-24T09:12:59.278Z,49.8
2024-04-24T09:13:59.291Z,48
2024-04-24T09:14:59.260Z,49.2
2024-04-24T09:15:59.289Z,48
2024-04-24T09:16:59.316Z,48
2024-04-24T09:17:59.435Z,47.4
2024-04-24T09:18:59.348Z,47.4
2024-04-24T09:19:59.375Z,47.4
2024-04-24T09:20:59.271Z,48.3
2024-04-24T09:21:59.273Z,50.5
2024-04-24T09:22:59.318Z,47.4
2024-04-24T09:23:59.284Z,46.7
2024-04-24T09:24:59.280Z,46.1
2024-04-24T09:25:59.421Z,47.7
2024-04-24T09:26:59.277Z,48
2024-04-24T09:27:59.281Z,48
2024-04-24T09:28:59.308Z,47.3
2024-04-24T09:29:59.309Z,48
2024-04-24T09:30:59.343Z,48.9
2024-04-24T09:31:59.387Z,48.6
2024-04-24T09:32:59.359Z,50.1
2024-04-24T09:33:59.289Z,49.8
2024-04-24T09:34:59.324Z,47.6
2024-04-24T09:35:59.287Z,49.2
2024-04-24T09:36:59.276Z,50.4
2024-04-24T09:37:59.958Z,48.5
2024-04-24T09:38:59.298Z,49.8
2024-04-24T09:39:59.282Z,50.7
2024-04-24T09:40:59.292Z,49.8
2024-04-24T09:41:59.503Z,51
2024-04-24T09:42:59.266Z,50.7
2024-04-24T09:43:59.332Z,51.3
2024-04-24T09:44:59.328Z,51.6
2024-04-24T09:45:59.277Z,50.9
2024-04-24T09:46:59.362Z,51.6
2024-04-24T09:47:59.422Z,51.6
2024-04-24T09:48:59.463Z,51.6
2024-04-24T09:49:59.328Z,51.9
2024-04-24T09:50:59.269Z,52.2
2024-04-24T09:51:59.273Z,52.8
2024-04-24T09:52:59.334Z,53.5
2024-04-24T09:53:59.264Z,53.5
2024-04-24T09:54:59.304Z,54.1
2024-04-24T09:55:59.292Z,53.5
2024-04-24T09:56:59.265Z,51.6
2024-04-24T09:57:59.292Z,51.6
2024-04-24T09:58:59.282Z,53.2
2024-04-24T09:59:59.264Z,51.6
2024-04-24T10:00:59.371Z,51.3
2024-04-24T10:01:59.294Z,51.6
2024-04-24T10:02:59.285Z,51
2024-04-24T10:03:59.265Z,51.7
2024-04-24T10:04:59.397Z,51.7
2024-04-24T10:05:59.292Z,52.3
2024-04-24T10:06:59.267Z,51.1
2024-04-24T10:07:59.292Z,52
2024-04-24T10:08:59.286Z,51.7
2024-04-24T10:09:59.284Z,51.7
2024-04-24T10:10:59.359Z,51.1
2024-04-24T10:11:59.411Z,50.5
2024-04-24T10:12:59.281Z,49.5
2024-04-24T10:13:59.438Z,49.2
2024-04-24T10:14:59.265Z,49.9
2024-04-24T10:15:59.265Z,49.2
2024-04-24T10:16:59.306Z,50.5
2024-04-24T10:17:59.418Z,52.1
2024-04-24T10:18:59.319Z,52.4
2024-04-24T10:20:05.521Z,51.8
2024-04-24T10:20:59.704Z,51.8
2024-04-24T10:21:59.271Z,53
2024-04-24T10:22:59.308Z,51.2
2024-04-24T10:23:59.270Z,51.2
2024-04-24T10:24:59.267Z,49.3
2024-04-24T10:25:59.300Z,49.9
2024-04-24T10:26:59.284Z,49.6
2024-04-24T10:27:59.288Z,50.5
2024-04-24T10:28:59.324Z,51.1
2024-04-24T10:29:59.289Z,51.1
2024-04-24T10:30:59.313Z,50.8
2024-04-24T10:31:59.328Z,50.4
2024-04-24T10:32:59.417Z,48.3
2024-04-24T10:33:59.380Z,48.6
2024-04-24T10:34:59.287Z,49.2
2024-04-24T10:35:59.274Z,50.1
2024-04-24T10:36:59.269Z,49.5
2024-04-24T10:37:59.282Z,48.5
2024-04-24T10:38:59.272Z,48.5
2024-04-24T10:39:59.405Z,48.9
2024-04-24T10:40:59.272Z,48.5
2024-04-24T10:41:59.271Z,47.9
2024-04-24T10:42:59.283Z,48.8
2024-04-24T10:43:59.356Z,47.3
2024-04-24T10:44:59.285Z,46.7
2024-04-24T10:45:59.275Z,47
2024-04-24T10:46:59.284Z,47.9
2024-04-24T10:47:59.341Z,46.6
2024-04-24T10:48:59.404Z,47.2
2024-04-24T10:49:59.362Z,48.5
2024-04-24T10:51:01.156Z,47.9
2024-04-24T10:51:59.282Z,47.5
2024-04-24T10:52:59.321Z,47.2
2024-04-24T10:53:59.392Z,47.2
2024-04-24T10:54:59.305Z,48.2
2024-04-24T10:55:59.417Z,49.1
2024-04-24T10:56:59.283Z,50
2024-04-24T10:57:59.290Z,48.8
2024-04-24T10:58:59.306Z,49.7
2024-04-24T10:59:59.298Z,48.5
2024-04-24T11:00:59.312Z,48.4
2024-04-24T11:01:59.304Z,48.8
2024-04-24T11:03:02.328Z,48.5
2024-04-24T11:03:59.311Z,47.8
2024-04-24T11:04:59.308Z,48.7
2024-04-24T11:05:59.336Z,48.8
2024-04-24T11:06:59.269Z,49.1
2024-04-24T11:07:59.346Z,48.4
2024-04-24T11:08:59.266Z,47.8
2024-04-24T11:09:59.283Z,49.1
2024-04-24T11:10:59.346Z,48.4
2024-04-24T11:11:59.513Z,49.7
2024-04-24T11:12:59.265Z,49.1
2024-04-24T11:13:59.291Z,48.8
2024-04-24T11:14:59.281Z,48.4
2024-04-24T11:16:05.929Z,50
2024-04-24T11:16:59.726Z,49.7
2024-04-24T11:17:59.373Z,50
2024-04-24T11:18:59.301Z,49.1
2024-04-24T11:19:59.329Z,49.1
2024-04-24T11:20:59.269Z,49.7
2024-04-24T11:21:59.287Z,49.7
2024-04-24T11:22:59.343Z,50.4
2024-04-24T11:23:59.274Z,51
2024-04-24T11:24:59.272Z,49.7
2024-04-24T11:26:00.431Z,49.8
2024-04-24T11:26:59.281Z,48.5
2024-04-24T11:27:59.275Z,48.5
2024-04-24T11:28:59.324Z,47.9
2024-04-24T11:29:59.295Z,47.9
2024-04-24T11:30:59.269Z,47.9
2024-04-24T11:32:00.463Z,46
2024-04-24T11:32:59.405Z,46.7
2024-04-24T11:33:59.393Z,47.3
2024-04-24T11:34:59.281Z,46.7
2024-04-24T11:35:59.265Z,44.8
2024-04-24T11:36:59.263Z,44.8
2024-04-24T11:37:59.336Z,45.7
2024-04-24T11:38:59.274Z,45.4
2024-04-24T11:39:59.294Z,46
2024-04-24T11:40:59.302Z,46.7
2024-04-24T11:41:59.286Z,47.3
2024-04-24T11:42:59.280Z,47.3
2024-04-24T11:43:59.414Z,47.3
2024-04-24T11:44:59.288Z,47.3
2024-04-24T11:45:59.277Z,47.3
2024-04-24T11:46:59.348Z,48.6
2024-04-24T11:47:59.403Z,48.6
2024-04-24T11:48:59.308Z,48.3
2024-04-24T11:49:59.468Z,48.6
2024-04-24T11:50:59.322Z,47.6
2024-04-24T11:51:59.292Z,47.9
2024-04-24T11:52:59.377Z,47.9
2024-04-24T11:53:59.283Z,48.3
2024-04-24T11:54:59.342Z,49.2
2024-04-24T11:55:59.324Z,49.5
2024-04-24T11:56:59.273Z,49.2
2024-04-24T11:57:59.296Z,48.5
2024-04-24T11:58:59.328Z,48.2
2024-04-24T11:59:59.292Z,48.2
2024-04-24T12:00:59.327Z,49.1
2024-04-24T12:01:59.317Z,49.1
2024-04-24T12:02:59.335Z,48.8
2024-04-24T12:03:59.309Z,49.1
2024-04-24T12:04:59.296Z,49.7
2024-04-24T12:05:59.277Z,49.7
2024-04-24T12:06:59.269Z,49.4
2024-04-24T12:07:59.291Z,49.7
2024-04-24T12:08:59.319Z,50.3
2024-04-24T12:09:59.297Z,50.6
2024-04-24T12:10:59.366Z,51
2024-04-24T12:12:00.497Z,51.3
2024-04-24T12:12:59.274Z,51.9
2024-04-24T12:13:59.323Z,52.2
2024-04-24T12:14:59.312Z,51.6
2024-04-24T12:15:59.312Z,52.9
2024-04-24T12:16:59.336Z,51.9
2024-04-24T12:17:59.302Z,51.6
2024-04-24T12:18:59.264Z,51.9
2024-04-24T12:19:59.351Z,53.4
2024-04-24T12:21:02.296Z,53.4
2024-04-24T12:21:59.269Z,53.8
2024-04-24T12:22:59.287Z,54.1
2024-04-24T12:23:59.257Z,54.7
2024-04-24T12:24:59.294Z,53.4
2024-04-24T12:25:59.281Z,53.4
2024-04-24T12:26:59.281Z,53.8
2024-04-24T12:27:59.261Z,54.1
2024-04-24T12:28:59.305Z,53.4
2024-04-24T12:29:59.295Z,52.8
2024-04-24T12:31:00.428Z,53.4
2024-04-24T12:31:59.291Z,54.1
2024-04-24T12:32:59.367Z,54.7
2024-04-24T12:33:59.452Z,54.7
2024-04-24T12:34:59.453Z,53.5
2024-04-24T12:35:59.269Z,53.5
2024-04-24T12:36:59.264Z,52.2
2024-04-24T12:37:59.276Z,51.9
2024-04-24T12:38:59.265Z,52.2
2024-04-24T12:39:59.375Z,51.6
2024-04-24T12:40:59.303Z,52.3
2024-04-24T12:41:59.263Z,52.3
2024-04-24T12:42:59.296Z,52
2024-04-24T12:43:59.292Z,51.4
2024-04-24T12:44:59.268Z,51.1
2024-04-24T12:45:59.273Z,50.1
2024-04-24T12:46:59.299Z,51.1
2024-04-24T12:47:59.311Z,50.8
2024-04-24T12:48:59.339Z,51.1
2024-04-24T12:49:59.298Z,49.9
2024-04-24T12:50:59.285Z,50.5
2024-04-24T12:51:59.273Z,49.9
2024-04-24T12:52:59.301Z,49.3
2024-04-24T12:53:59.265Z,50.2
2024-04-24T12:54:59.308Z,49.9
2024-04-24T12:55:59.294Z,48.7
2024-04-24T12:56:59.279Z,48.7
2024-04-24T12:57:59.279Z,49.3
2024-04-24T12:58:59.292Z,48.1
2024-04-24T12:59:59.319Z,48.4
2024-04-24T13:00:59.496Z,48.7
2024-04-24T13:01:59.299Z,49.3
2024-04-24T13:02:59.273Z,50.6
2024-04-24T13:03:59.288Z,50.6
2024-04-24T13:04:59.313Z,50
2024-04-24T13:05:59.312Z,50.6
2024-04-24T13:06:59.518Z,49.9
2024-04-24T13:07:59.908Z,49.9
2024-04-24T13:08:59.506Z,50.5
2024-04-24T13:09:59.528Z,50.9
2024-04-24T13:10:59.558Z,51.8
2024-04-24T13:11:59.341Z,51.8
2024-04-24T13:12:59.265Z,51.8
2024-04-24T13:13:59.292Z,52.1
2024-04-24T13:14:59.271Z,52.4
2024-04-24T13:15:59.263Z,54.3
2024-04-24T13:16:59.501Z,53.6
2024-04-24T13:17:59.407Z,53
2024-04-24T13:18:59.551Z,54
2024-04-24T13:19:59.359Z,53.7
2024-04-24T13:20:59.263Z,53.7
2024-04-24T13:21:59.275Z,54.3
2024-04-24T13:22:59.292Z,52.8
2024-04-24T13:23:59.273Z,53.7
2024-04-24T13:24:59.284Z,53.1
2024-04-24T13:25:59.303Z,53.1
2024-04-24T13:26:59.291Z,54.4
2024-04-24T13:27:59.276Z,54.4
2024-04-24T13:28:59.272Z,51.9
2024-04-24T13:29:59.282Z,51.8